sensor_id;sensor_type;location;lat;lon;timestamp;pressure;altitude;pressure_sealevel;temperature;humidity
57990;BME280;58373;51.824;5.564;2023-01-30T00:01:30;101695.53;;;3.42;100.00
57990;BME280;58373;51.824;5.564;2023-01-30T00:03:56;101702.31;;;3.43;100.00
57990;BME280;58373;51.824;5.564;2023-01-30T00:06:22;101692.06;;;3.43;100.00
57990;BME280;58373;51.824;5.564;2023-01-30T00:08:48;101685.25;;;3.42;100.00
57990;BME280;58373;51.824;5.564;2023-01-30T00:11:15;101698.16;;;3.40;100.00
57990;BME280;58373;51.824;5.564;2023-01-30T00:13:41;101687.66;;;3.46;100.00
57990;BME280;58373;51.824;5.564;2023-01-30T00:16:08;101693.50;;;3.50;100.00
57990;BME280;58373;51.824;5.564;2023-01-30T00:18:34;101681.69;;;3.46;100.00
57990;BME280;58373;51.824;5.564;2023-01-30T00:21:02;101689.91;;;3.54;100.00
57990;BME280;58373;51.824;5.564;2023-01-30T00:23:29;101692.44;;;3.56;100.00
57990;BME280;58373;51.824;5.564;2023-01-30T00:25:55;101678.88;;;3.52;100.00
57990;BME280;58373;51.824;5.564;2023-01-30T00:28:22;101689.81;;;3.57;100.00
57990;BME280;58373;51.824;5.564;2023-01-30T00:30:48;101669.41;;;3.54;100.00
57990;BME280;58373;51.824;5.564;2023-01-30T00:33:14;101668.41;;;3.58;100.00
57990;BME280;58373;51.824;5.564;2023-01-30T00:35:46;101665.72;;;3.61;100.00
57990;BME280;58373;51.824;5.564;2023-01-30T00:38:13;101655.47;;;3.61;100.00
57990;BME280;58373;51.824;5.564;2023-01-30T00:40:38;101650.19;;;3.64;100.00
57990;BME280;58373;51.824;5.564;2023-01-30T00:43:04;101662.13;;;3.65;100.00
57990;BME280;58373;51.824;5.564;2023-01-30T00:45:49;101665.34;;;3.70;100.00
57990;BME280;58373;51.824;5.564;2023-01-30T00:48:35;101658.41;;;3.72;100.00
57990;BME280;58373;51.824;5.564;2023-01-30T00:51:00;101656.56;;;3.76;100.00
57990;BME280;58373;51.824;5.564;2023-01-30T00:53:26;101658.31;;;3.76;100.00
57990;BME280;58373;51.824;5.564;2023-01-30T00:55:52;101652.28;;;3.77;100.00
57990;BME280;58373;51.824;5.564;2023-01-30T00:58:18;101644.31;;;3.83;100.00
57990;BME280;58373;51.824;5.564;2023-01-30T01:00:44;101650.19;;;3.86;100.00
57990;BME280;58373;51.824;5.564;2023-01-30T01:03:09;101640.03;;;3.83;100.00
57990;BME280;58373;51.824;5.564;2023-01-30T01:05:35;101635.47;;;3.90;100.00
57990;BME280;58373;51.824;5.564;2023-01-30T01:08:01;101637.16;;;3.91;100.00
57990;BME280;58373;51.824;5.564;2023-01-30T01:10:26;101625.22;;;3.90;100.00
57990;BME280;58373;51.824;5.564;2023-01-30T01:12:52;101620.88;;;3.92;100.00
57990;BME280;58373;51.824;5.564;2023-01-30T01:15:18;101612.34;;;3.91;100.00
57990;BME280;58373;51.824;5.564;2023-01-30T01:17:45;101628.56;;;3.92;100.00
57990;BME280;58373;51.824;5.564;2023-01-30T01:20:10;101626.91;;;3.91;100.00
57990;BME280;58373;51.824;5.564;2023-01-30T01:22:37;101635.19;;;3.97;100.00
57990;BME280;58373;51.824;5.564;2023-01-30T01:25:03;101625.00;;;3.96;100.00
57990;BME280;58373;51.824;5.564;2023-01-30T01:27:28;101628.44;;;3.95;100.00
57990;BME280;58373;51.824;5.564;2023-01-30T01:29:53;101635.25;;;3.96;100.00
57990;BME280;58373;51.824;5.564;2023-01-30T01:32:20;101617.22;;;3.97;100.00
57990;BME280;58373;51.824;5.564;2023-01-30T01:34:45;101599.31;;;3.96;100.00
57990;BME280;58373;51.824;5.564;2023-01-30T01:37:11;101605.97;;;4.00;100.00
57990;BME280;58373;51.824;5.564;2023-01-30T01:39:37;101577.94;;;3.95;100.00
57990;BME280;58373;51.824;5.564;2023-01-30T01:42:22;101595.66;;;4.02;100.00
57990;BME280;58373;51.824;5.564;2023-01-30T01:48:05;101592.88;;;4.06;100.00
57990;BME280;58373;51.824;5.564;2023-01-30T01:50:55;101581.75;;;4.07;100.00
57990;BME280;58373;51.824;5.564;2023-01-30T01:53:26;101575.06;;;4.03;100.00
57990;BME280;58373;51.824;5.564;2023-01-30T01:55:56;101569.78;;;4.06;100.00
57990;BME280;58373;51.824;5.564;2023-01-30T01:58:27;101576.47;;;4.10;100.00
57990;BME280;58373;51.824;5.564;2023-01-30T02:00:56;101572.03;;;4.14;100.00
57990;BME280;58373;51.824;5.564;2023-01-30T02:03:24;101563.50;;;4.13;100.00
57990;BME280;58373;51.824;5.564;2023-01-30T02:05:52;101566.69;;;4.18;100.00
57990;BME280;58373;51.824;5.564;2023-01-30T02:08:22;101554.72;;;4.19;100.00
57990;BME280;58373;51.824;5.564;2023-01-30T02:11:02;101552.56;;;4.29;100.00
57990;BME280;58373;51.824;5.564;2023-01-30T02:13:30;101548.22;;;4.31;100.00
57990;BME280;58373;51.824;5.564;2023-01-30T02:16:00;101534.47;;;4.32;100.00
57990;BME280;58373;51.824;5.564;2023-01-30T02:18:27;101530.44;;;4.45;100.00
57990;BME280;58373;51.824;5.564;2023-01-30T02:32:27;101532.31;;;4.79;100.00
57990;BME280;58373;51.824;5.564;2023-01-30T02:35:08;101538.00;;;4.86;100.00
57990;BME280;58373;51.824;5.564;2023-01-30T02:38:25;101531.19;;;4.85;100.00
57990;BME280;58373;51.824;5.564;2023-01-30T02:41:18;101525.03;;;4.89;100.00
57990;BME280;58373;51.824;5.564;2023-01-30T02:46:53;101529.03;;;4.94;100.00
57990;BME280;58373;51.824;5.564;2023-01-30T02:49:25;101518.06;;;4.91;100.00
57990;BME280;58373;51.824;5.564;2023-01-30T02:51:53;101519.59;;;4.95;100.00
57990;BME280;58373;51.824;5.564;2023-01-30T02:54:20;101517.78;;;4.97;100.00
57990;BME280;58373;51.824;5.564;2023-01-30T02:56:51;101504.25;;;4.93;100.00
57990;BME280;58373;51.824;5.564;2023-01-30T02:59:41;101517.78;;;4.97;100.00
57990;BME280;58373;51.824;5.564;2023-01-30T03:05:25;101503.97;;;4.99;100.00
57990;BME280;58373;51.824;5.564;2023-01-30T03:11:05;101501.38;;;4.99;100.00
57990;BME280;58373;51.824;5.564;2023-01-30T03:16:17;101488.75;;;4.95;100.00
57990;BME280;58373;51.824;5.564;2023-01-30T03:18:46;101490.53;;;4.93;100.00
57990;BME280;58373;51.824;5.564;2023-01-30T03:21:12;101499.03;;;4.95;100.00
57990;BME280;58373;51.824;5.564;2023-01-30T03:23:37;101490.53;;;4.93;100.00
57990;BME280;58373;51.824;5.564;2023-01-30T03:26:05;101484.50;;;4.94;100.00
57990;BME280;58373;51.824;5.564;2023-01-30T03:28:33;101484.44;;;4.95;100.00
57990;BME280;58373;51.824;5.564;2023-01-30T03:30:58;101489.41;;;4.98;100.00
57990;BME280;58373;51.824;5.564;2023-01-30T03:33:24;101483.44;;;4.98;100.00
57990;BME280;58373;51.824;5.564;2023-01-30T03:35:49;101476.81;;;4.94;100.00
57990;BME280;58373;51.824;5.564;2023-01-30T03:38:15;101485.25;;;4.96;100.00
57990;BME280;58373;51.824;5.564;2023-01-30T03:40:41;101480.00;;;4.99;100.00
57990;BME280;58373;51.824;5.564;2023-01-30T03:43:06;101474.84;;;4.99;100.00
57990;BME280;58373;51.824;5.564;2023-01-30T03:45:32;101474.97;;;4.96;100.00
57990;BME280;58373;51.824;5.564;2023-01-30T03:47:57;101464.69;;;4.96;100.00
57990;BME280;58373;51.824;5.564;2023-01-30T03:50:23;101470.66;;;4.96;100.00
57990;BME280;58373;51.824;5.564;2023-01-30T03:52:48;101464.69;;;4.96;100.00
57990;BME280;58373;51.824;5.564;2023-01-30T03:55:13;101452.88;;;4.92;100.00
57990;BME280;58373;51.824;5.564;2023-01-30T03:57:39;101474.06;;;4.97;100.00
57990;BME280;58373;51.824;5.564;2023-01-30T04:00:04;101457.91;;;4.95;100.00
57990;BME280;58373;51.824;5.564;2023-01-30T04:02:30;101468.00;;;4.98;100.00
57990;BME280;58373;51.824;5.564;2023-01-30T04:04:55;101461.38;;;4.94;100.00
57990;BME280;58373;51.824;5.564;2023-01-30T04:07:21;101468.00;;;4.98;100.00
57990;BME280;58373;51.824;5.564;2023-01-30T04:09:46;101467.88;;;5.01;100.00
57990;BME280;58373;51.824;5.564;2023-01-30T04:12:12;101468.00;;;4.98;100.00
57990;BME280;58373;51.824;5.564;2023-01-30T04:14:37;101470.25;;;5.05;100.00
57990;BME280;58373;51.824;5.564;2023-01-30T04:17:03;101472.72;;;5.07;100.00
57990;BME280;58373;51.824;5.564;2023-01-30T04:19:28;101449.97;;;4.99;100.00
57990;BME280;58373;51.824;5.564;2023-01-30T04:21:54;101459.13;;;5.05;100.00
57990;BME280;58373;51.824;5.564;2023-01-30T04:24:19;101458.06;;;5.09;100.00
57990;BME280;58373;51.824;5.564;2023-01-30T04:26:44;101448.84;;;5.05;100.00
57990;BME280;58373;51.824;5.564;2023-01-30T04:29:09;101457.31;;;5.07;100.00
57990;BME280;58373;51.824;5.564;2023-01-30T04:31:35;101460.69;;;5.07;100.00
57990;BME280;58373;51.824;5.564;2023-01-30T04:34:00;101479.44;;;5.10;100.00
57990;BME280;58373;51.824;5.564;2023-01-30T04:36:25;101467.59;;;5.07;100.00
57990;BME280;58373;51.824;5.564;2023-01-30T04:38:53;101466.53;;;5.11;100.00
57990;BME280;58373;51.824;5.564;2023-01-30T04:41:18;101470.59;;;5.15;100.00
57990;BME280;58373;51.824;5.564;2023-01-30T04:43:44;101467.91;;;5.18;100.00
57990;BME280;58373;51.824;5.564;2023-01-30T04:46:09;101478.28;;;5.17;100.00
57990;BME280;58373;51.824;5.564;2023-01-30T04:48:34;101476.53;;;5.17;100.00
57990;BME280;58373;51.824;5.564;2023-01-30T04:51:00;101477.13;;;5.22;100.00
57990;BME280;58373;51.824;5.564;2023-01-30T04:53:25;101467.00;;;5.19;100.00
57990;BME280;58373;51.824;5.564;2023-01-30T04:55:51;101478.81;;;5.23;100.00
57990;BME280;58373;51.824;5.564;2023-01-30T04:58:17;101474.56;;;5.22;100.00
57990;BME280;58373;51.824;5.564;2023-01-30T05:00:44;101477.34;;;5.18;100.00
57990;BME280;58373;51.824;5.564;2023-01-30T05:03:09;101489.22;;;5.20;100.00
57990;BME280;58373;51.824;5.564;2023-01-30T05:05:34;101483.25;;;5.20;100.00
57990;BME280;58373;51.824;5.564;2023-01-30T05:08:00;101487.25;;;5.25;100.00
57990;BME280;58373;51.824;5.564;2023-01-30T05:10:25;101475.31;;;5.24;100.00
57990;BME280;58373;51.824;5.564;2023-01-30T05:12:51;101473.50;;;5.26;100.00
57990;BME280;58373;51.824;5.564;2023-01-30T05:15:16;101475.94;;;5.29;100.00
57990;BME280;58373;51.824;5.564;2023-01-30T05:17:41;101475.00;;;5.30;100.00
57990;BME280;58373;51.824;5.564;2023-01-30T05:20:09;101469.88;;;5.30;100.00
57990;BME280;58373;51.824;5.564;2023-01-30T05:22:35;101472.44;;;5.30;100.00
57990;BME280;58373;51.824;5.564;2023-01-30T05:25:03;101483.47;;;5.32;100.00
57990;BME280;58373;51.824;5.564;2023-01-30T05:27:28;101481.91;;;5.30;100.00
57990;BME280;58373;51.824;5.564;2023-01-30T05:29:54;101488.41;;;5.37;100.00
57990;BME280;58373;51.824;5.564;2023-01-30T05:32:19;101486.66;;;5.38;100.00
57990;BME280;58373;51.824;5.564;2023-01-30T05:34:47;101471.22;;;5.38;100.00
57990;BME280;58373;51.824;5.564;2023-01-30T05:37:12;101455.44;;;5.28;100.00
57990;BME280;58373;51.824;5.564;2023-01-30T05:39:38;101471.53;;;5.31;100.00
57990;BME280;58373;51.824;5.564;2023-01-30T05:42:03;101471.53;;;5.31;100.00
57990;BME280;58373;51.824;5.564;2023-01-30T05:44:29;101491.97;;;5.35;100.00
57990;BME280;58373;51.824;5.564;2023-01-30T05:46:54;101504.81;;;5.35;100.00
57990;BME280;58373;51.824;5.564;2023-01-30T05:49:19;101505.75;;;5.33;100.00
57990;BME280;58373;51.824;5.564;2023-01-30T05:51:45;101504.06;;;5.32;100.00
57990;BME280;58373;51.824;5.564;2023-01-30T05:54:10;101524.50;;;5.36;100.00
57990;BME280;58373;51.824;5.564;2023-01-30T05:56:35;101517.06;;;5.29;100.00
57990;BME280;58373;51.824;5.564;2023-01-30T05:59:01;101518.66;;;5.32;100.00
57990;BME280;58373;51.824;5.564;2023-01-30T06:01:27;101519.03;;;5.42;100.00
57990;BME280;58373;51.824;5.564;2023-01-30T06:03:54;101515.72;;;5.40;100.00
57990;BME280;58373;51.824;5.564;2023-01-30T06:06:20;101521.31;;;5.48;100.00
57990;BME280;58373;51.824;5.564;2023-01-30T06:08:46;101522.91;;;5.50;100.00
57990;BME280;58373;51.824;5.564;2023-01-30T06:11:15;101511.13;;;5.46;100.00
57990;BME280;58373;51.824;5.564;2023-01-30T06:13:42;101512.06;;;5.44;100.00
57990;BME280;58373;51.824;5.564;2023-01-30T06:16:09;101521.25;;;5.49;100.00
57990;BME280;58373;51.824;5.564;2023-01-30T06:18:36;101527.69;;;5.41;100.00
57990;BME280;58373;51.824;5.564;2023-01-30T06:21:02;101519.47;;;5.32;100.00
57990;BME280;58373;51.824;5.564;2023-01-30T06:23:28;101520.03;;;5.39;100.00
57990;BME280;58373;51.824;5.564;2023-01-30T06:25:53;101526.31;;;5.33;100.00
57990;BME280;58373;51.824;5.564;2023-01-30T06:28:20;101524.72;;;5.31;100.00
57990;BME280;58373;51.824;5.564;2023-01-30T06:30:46;101543.00;;;5.25;100.00
57990;BME280;58373;51.824;5.564;2023-01-30T06:33:11;101550.72;;;5.25;100.00
57990;BME280;58373;51.824;5.564;2023-01-30T06:35:37;101558.66;;;5.20;100.00
57990;BME280;58373;51.824;5.564;2023-01-30T06:38:04;101534.13;;;5.13;100.00
57990;BME280;58373;51.824;5.564;2023-01-30T06:40:29;101526.63;;;5.09;100.00
57990;BME280;58373;51.824;5.564;2023-01-30T06:42:54;101534.56;;;5.04;100.00
57990;BME280;58373;51.824;5.564;2023-01-30T06:45:20;101535.41;;;5.04;100.00
57990;BME280;58373;51.824;5.564;2023-01-30T06:47:47;101536.53;;;4.99;100.00
57990;BME280;58373;51.824;5.564;2023-01-30T06:50:13;101549.31;;;5.00;100.00
57990;BME280;58373;51.824;5.564;2023-01-30T06:52:49;101551.69;;;4.86;100.00
57990;BME280;58373;51.824;5.564;2023-01-30T06:55:16;101534.53;;;4.87;100.00
57990;BME280;58373;51.824;5.564;2023-01-30T06:57:43;101520.28;;;4.79;100.00
57990;BME280;58373;51.824;5.564;2023-01-30T07:00:17;101535.78;;;4.78;100.00
57990;BME280;58373;51.824;5.564;2023-01-30T07:02:43;101543.34;;;4.62;100.00
57990;BME280;58373;51.824;5.564;2023-01-30T07:05:09;101554.13;;;4.70;100.00
57990;BME280;58373;51.824;5.564;2023-01-30T07:07:34;101550.88;;;4.67;100.00
57990;BME280;58373;51.824;5.564;2023-01-30T07:10:01;101552.94;;;4.59;100.00
57990;BME280;58373;51.824;5.564;2023-01-30T07:12:27;101538.50;;;4.56;100.00
57990;BME280;58373;51.824;5.564;2023-01-30T07:14:53;101555.44;;;4.60;100.00
57990;BME280;58373;51.824;5.564;2023-01-30T07:17:19;101568.09;;;4.65;100.00
57990;BME280;58373;51.824;5.564;2023-01-30T07:19:45;101569.19;;;4.59;100.00
57990;BME280;58373;51.824;5.564;2023-01-30T07:22:11;101569.47;;;4.53;100.00
57990;BME280;58373;51.824;5.564;2023-01-30T07:24:36;101573.06;;;4.49;100.00
57990;BME280;58373;51.824;5.564;2023-01-30T07:27:02;101584.31;;;4.46;100.00
57990;BME280;58373;51.824;5.564;2023-01-30T07:29:28;101591.31;;;4.43;100.00
57990;BME280;58373;51.824;5.564;2023-01-30T07:31:53;101611.88;;;4.43;100.00
57990;BME280;58373;51.824;5.564;2023-01-30T07:34:18;101609.44;;;4.40;100.00
57990;BME280;58373;51.824;5.564;2023-01-30T07:36:44;101607.75;;;4.39;100.00
57990;BME280;58373;51.824;5.564;2023-01-30T07:39:09;101581.44;;;4.34;100.00
57990;BME280;58373;51.824;5.564;2023-01-30T07:41:35;101596.22;;;4.29;100.00
57990;BME280;58373;51.824;5.564;2023-01-30T07:44:01;101586.19;;;4.22;100.00
57990;BME280;58373;51.824;5.564;2023-01-30T07:46:26;101597.94;;;4.28;100.00
57990;BME280;58373;51.824;5.564;2023-01-30T07:48:58;101602.88;;;4.33;100.00
57990;BME280;58373;51.824;5.564;2023-01-30T07:51:24;101593.72;;;4.27;100.00
57990;BME280;58373;51.824;5.564;2023-01-30T07:53:49;101608.28;;;4.26;99.82
57990;BME280;58373;51.824;5.564;2023-01-30T07:56:19;101595.53;;;4.25;99.85
57990;BME280;58373;51.824;5.564;2023-01-30T07:58:48;101594.56;;;4.28;99.19
57990;BME280;58373;51.824;5.564;2023-01-30T08:01:14;101598.13;;;4.23;99.29
57990;BME280;58373;51.824;5.564;2023-01-30T08:03:39;101596.47;;;4.22;98.76
57990;BME280;58373;51.824;5.564;2023-01-30T08:06:06;101591.88;;;4.10;99.03
57990;BME280;58373;51.824;5.564;2023-01-30T08:08:31;101612.03;;;4.19;99.00
57990;BME280;58373;51.824;5.564;2023-01-30T08:10:57;101610.59;;;4.12;98.92
57990;BME280;58373;51.824;5.564;2023-01-30T08:13:22;101615.88;;;4.09;98.87
57990;BME280;58373;51.824;5.564;2023-01-30T08:15:47;101621.00;;;4.09;97.83
57990;BME280;58373;51.824;5.564;2023-01-30T08:18:13;101619.19;;;4.11;97.68
57990;BME280;58373;51.824;5.564;2023-01-30T08:20:38;101605.47;;;4.12;97.38
57990;BME280;58373;51.824;5.564;2023-01-30T08:23:03;101607.00;;;4.16;97.22
57990;BME280;58373;51.824;5.564;2023-01-30T08:25:29;101623.44;;;4.12;97.42
57990;BME280;58373;51.824;5.564;2023-01-30T08:27:54;101614.31;;;4.05;97.30
57990;BME280;58373;51.824;5.564;2023-01-30T08:30:20;101634.50;;;4.14;96.32
57990;BME280;58373;51.824;5.564;2023-01-30T08:32:46;101630.25;;;4.13;96.96
57990;BME280;58373;51.824;5.564;2023-01-30T08:35:11;101627.69;;;4.13;96.79
57990;BME280;58373;51.824;5.564;2023-01-30T08:37:40;101641.13;;;4.18;96.95
57990;BME280;58373;51.824;5.564;2023-01-30T08:40:07;101625.88;;;4.15;96.78
57990;BME280;58373;51.824;5.564;2023-01-30T08:42:33;101638.78;;;4.14;96.70
57990;BME280;58373;51.824;5.564;2023-01-30T08:44:58;101657.34;;;4.20;95.82
57990;BME280;58373;51.824;5.564;2023-01-30T08:47:24;101647.56;;;4.29;95.44
57990;BME280;58373;51.824;5.564;2023-01-30T08:49:49;101648.47;;;4.28;95.25
57990;BME280;58373;51.824;5.564;2023-01-30T08:52:18;101654.25;;;4.33;95.55
57990;BME280;58373;51.824;5.564;2023-01-30T08:54:44;101668.94;;;4.29;95.07
57990;BME280;58373;51.824;5.564;2023-01-30T08:57:09;101669.41;;;4.39;94.99
57990;BME280;58373;51.824;5.564;2023-01-30T08:59:35;101672.72;;;4.41;95.11
57990;BME280;58373;51.824;5.564;2023-01-30T09:02:01;101663.88;;;4.48;94.89
57990;BME280;58373;51.824;5.564;2023-01-30T09:04:28;101665.97;;;4.59;93.76
57990;BME280;58373;51.824;5.564;2023-01-30T09:06:54;101679.34;;;4.67;94.03
57990;BME280;58373;51.824;5.564;2023-01-30T09:09:19;101683.38;;;4.72;94.15
57990;BME280;58373;51.824;5.564;2023-01-30T09:11:44;101691.44;;;4.84;93.74
57990;BME280;58373;51.824;5.564;2023-01-30T09:14:12;101694.50;;;4.92;93.91
57990;BME280;58373;51.824;5.564;2023-01-30T09:16:38;101680.75;;;4.93;93.99
57990;BME280;58373;51.824;5.564;2023-01-30T09:19:03;101695.94;;;4.99;93.28
57990;BME280;58373;51.824;5.564;2023-01-30T09:21:29;101673.56;;;5.01;92.90
57990;BME280;58373;51.824;5.564;2023-01-30T09:23:56;101685.38;;;5.05;92.26
57990;BME280;58373;51.824;5.564;2023-01-30T09:26:21;101677.66;;;5.05;93.29
57990;BME280;58373;51.824;5.564;2023-01-30T09:28:47;101682.09;;;5.01;92.40
57990;BME280;58373;51.824;5.564;2023-01-30T09:31:13;101679.53;;;5.01;91.97
57990;BME280;58373;51.824;5.564;2023-01-30T09:33:38;101701.63;;;5.05;92.31
57990;BME280;58373;51.824;5.564;2023-01-30T09:36:04;101696.34;;;5.09;91.43
57990;BME280;58373;51.824;5.564;2023-01-30T09:38:29;101689.34;;;5.12;90.98
57990;BME280;58373;51.824;5.564;2023-01-30T09:41:02;101698.31;;;5.22;90.45
57990;BME280;58373;51.824;5.564;2023-01-30T09:43:59;101693.28;;;5.19;91.36
57990;BME280;58373;51.824;5.564;2023-01-30T09:46:41;101700.81;;;5.24;92.38
57990;BME280;58373;51.824;5.564;2023-01-30T09:55:02;101713.03;;;5.38;88.78
57990;BME280;58373;51.824;5.564;2023-01-30T09:57:38;101712.97;;;5.39;90.02
57990;BME280;58373;51.824;5.564;2023-01-30T10:02:56;101714.56;;;5.42;88.79
57990;BME280;58373;51.824;5.564;2023-01-30T10:05:39;101724.56;;;5.48;86.73
57990;BME280;58373;51.824;5.564;2023-01-30T10:10:48;101737.78;;;5.59;87.10
57990;BME280;58373;51.824;5.564;2023-01-30T10:15:52;101734.16;;;5.63;86.42
57990;BME280;58373;51.824;5.564;2023-01-30T10:26:11;101744.31;;;5.66;85.84
57990;BME280;58373;51.824;5.564;2023-01-30T10:28:53;101753.47;;;5.72;86.58
57990;BME280;58373;51.824;5.564;2023-01-30T10:31:24;101744.00;;;5.72;87.32
57990;BME280;58373;51.824;5.564;2023-01-30T10:34:01;101745.69;;;5.73;86.59
57990;BME280;58373;51.824;5.564;2023-01-30T10:36:41;101738.75;;;5.75;85.86
57990;BME280;58373;51.824;5.564;2023-01-30T10:39:23;101742.22;;;5.74;87.01
57990;BME280;58373;51.824;5.564;2023-01-30T10:42:11;101742.06;;;5.77;86.60
57990;BME280;58373;51.824;5.564;2023-01-30T10:44:38;101741.59;;;5.69;86.08
57990;BME280;58373;51.824;5.564;2023-01-30T10:47:13;101752.66;;;5.71;86.52
57990;BME280;58373;51.824;5.564;2023-01-30T10:49:45;101760.72;;;5.82;87.04
57990;BME280;58373;51.824;5.564;2023-01-30T11:00:38;101752.22;;;5.80;85.78
57990;BME280;58373;51.824;5.564;2023-01-30T11:05:47;101756.53;;;5.99;87.19
57990;BME280;58373;51.824;5.564;2023-01-30T11:08:20;101749.03;;;5.94;87.21
57990;BME280;58373;51.824;5.564;2023-01-30T11:10:47;101748.75;;;6.00;87.07
57990;BME280;58373;51.824;5.564;2023-01-30T11:13:17;101751.94;;;6.05;86.56
57990;BME280;58373;51.824;5.564;2023-01-30T11:15:46;101749.28;;;6.07;85.34
57990;BME280;58373;51.824;5.564;2023-01-30T11:18:13;101747.63;;;6.06;85.89
57990;BME280;58373;51.824;5.564;2023-01-30T11:21:01;101754.13;;;6.13;85.15
57990;BME280;58373;51.824;5.564;2023-01-30T11:23:43;101759.44;;;6.10;83.86
57990;BME280;58373;51.824;5.564;2023-01-30T11:26:21;101754.44;;;6.24;84.43
57990;BME280;58373;51.824;5.564;2023-01-30T11:28:47;101751.09;;;6.05;84.70
57990;BME280;58373;51.824;5.564;2023-01-30T11:31:29;101759.44;;;6.10;84.92
57990;BME280;58373;51.824;5.564;2023-01-30T11:34:11;101748.59;;;6.03;84.33
57990;BME280;58373;51.824;5.564;2023-01-30T11:36:37;101745.94;;;6.05;84.58
57990;BME280;58373;51.824;5.564;2023-01-30T11:41:56;101762.03;;;6.27;83.72
57990;BME280;58373;51.824;5.564;2023-01-30T11:44:34;101766.13;;;6.14;84.29
57990;BME280;58373;51.824;5.564;2023-01-30T11:47:16;101765.66;;;6.23;83.88
57990;BME280;58373;51.824;5.564;2023-01-30T11:49:47;101767.31;;;6.24;84.41
57990;BME280;58373;51.824;5.564;2023-01-30T11:52:18;101751.00;;;6.25;83.29
57990;BME280;58373;51.824;5.564;2023-01-30T11:54:47;101745.06;;;6.23;84.14
57990;BME280;58373;51.824;5.564;2023-01-30T11:57:14;101763.41;;;6.34;83.15
57990;BME280;58373;51.824;5.564;2023-01-30T11:59:55;101745.59;;;6.30;83.21
57990;BME280;58373;51.824;5.564;2023-01-30T12:02:23;101750.06;;;6.26;82.74
57990;BME280;58373;51.824;5.564;2023-01-30T12:04:51;101741.50;;;6.26;83.36
57990;BME280;58373;51.824;5.564;2023-01-30T12:07:28;101749.78;;;6.32;84.34
57990;BME280;58373;51.824;5.564;2023-01-30T12:09:55;101757.94;;;6.41;83.34
57990;BME280;58373;51.824;5.564;2023-01-30T12:26:39;101780.97;;;6.26;81.30
57990;BME280;58373;51.824;5.564;2023-01-30T12:29:27;101765.59;;;6.25;83.46
57990;BME280;58373;51.824;5.564;2023-01-30T12:32:20;101791.91;;;6.49;81.11
57990;BME280;58373;51.824;5.564;2023-01-30T12:34:49;101788.25;;;6.35;82.40
57990;BME280;58373;51.824;5.564;2023-01-30T12:37:45;101795.56;;;6.45;81.13
57990;BME280;58373;51.824;5.564;2023-01-30T12:43:20;101791.44;;;6.41;78.80
57990;BME280;58373;51.824;5.564;2023-01-30T12:48:40;101785.97;;;6.29;78.31
57990;BME280;58373;51.824;5.564;2023-01-30T12:51:31;101806.78;;;6.44;80.29
57990;BME280;58373;51.824;5.564;2023-01-30T13:06:34;101806.00;;;6.42;79.88
57990;BME280;58373;51.824;5.564;2023-01-30T13:09:13;101811.75;;;6.47;78.14
57990;BME280;58373;51.824;5.564;2023-01-30T13:22:39;101826.03;;;6.54;79.82
57990;BME280;58373;51.824;5.564;2023-01-30T13:25:15;101831.19;;;6.54;80.01
57990;BME280;58373;51.824;5.564;2023-01-30T13:27:51;101826.31;;;6.48;77.84
57990;BME280;58373;51.824;5.564;2023-01-30T13:30:18;101827.38;;;6.44;78.26
57990;BME280;58373;51.824;5.564;2023-01-30T13:32:46;101837.91;;;6.39;78.72
57990;BME280;58373;51.824;5.564;2023-01-30T13:35:19;101844.88;;;6.37;79.38
57990;BME280;58373;51.824;5.564;2023-01-30T13:37:47;101841.69;;;6.32;79.36
57990;BME280;58373;51.824;5.564;2023-01-30T13:40:18;101844.03;;;6.36;79.64
57990;BME280;58373;51.824;5.564;2023-01-30T13:42:47;101848.44;;;6.34;80.79
57990;BME280;58373;51.824;5.564;2023-01-30T13:45:27;101853.50;;;6.36;80.03
57990;BME280;58373;51.824;5.564;2023-01-30T13:53:38;101873.00;;;6.42;80.61
57990;BME280;58373;51.824;5.564;2023-01-30T13:59:00;101867.66;;;6.27;80.28
57990;BME280;58373;51.824;5.564;2023-01-30T14:02:07;101887.53;;;6.25;80.93
57990;BME280;58373;51.824;5.564;2023-01-30T14:09:36;101904.03;;;6.21;81.26
57990;BME280;58373;51.824;5.564;2023-01-30T14:12:02;101906.44;;;6.24;80.69
57990;BME280;58373;51.824;5.564;2023-01-30T14:14:34;101911.53;;;6.26;80.77
57990;BME280;58373;51.824;5.564;2023-01-30T14:17:14;101902.28;;;6.22;81.42
57990;BME280;58373;51.824;5.564;2023-01-30T14:22:46;101922.97;;;6.20;81.24
57990;BME280;58373;51.824;5.564;2023-01-30T14:32:56;101934.31;;;6.16;81.95
57990;BME280;58373;51.824;5.564;2023-01-30T14:35:25;101941.94;;;6.18;81.83
57990;BME280;58373;51.824;5.564;2023-01-30T14:38:06;101946.00;;;6.23;81.52
57990;BME280;58373;51.824;5.564;2023-01-30T14:40:34;101963.13;;;6.24;81.43
57990;BME280;58373;51.824;5.564;2023-01-30T14:51:18;101964.53;;;6.31;82.39
57990;BME280;58373;51.824;5.564;2023-01-30T14:54:01;101966.81;;;6.19;81.92
57990;BME280;58373;51.824;5.564;2023-01-30T14:56:57;101990.56;;;6.25;82.82
57990;BME280;58373;51.824;5.564;2023-01-30T15:07:23;101998.69;;;6.16;82.35
57990;BME280;58373;51.824;5.564;2023-01-30T15:18:44;102017.75;;;6.12;83.92
57990;BME280;58373;51.824;5.564;2023-01-30T15:26:53;102031.06;;;6.03;83.12
57990;BME280;58373;51.824;5.564;2023-01-30T15:32:01;102044.81;;;6.02;82.89
57990;BME280;58373;51.824;5.564;2023-01-30T15:34:31;102038.78;;;6.03;82.97
57990;BME280;58373;51.824;5.564;2023-01-30T15:36:58;102031.31;;;5.97;83.62
57990;BME280;58373;51.824;5.564;2023-01-30T15:39:26;102041.63;;;5.97;83.78
57990;BME280;58373;51.824;5.564;2023-01-30T15:41:53;102047.66;;;5.96;83.63
57990;BME280;58373;51.824;5.564;2023-01-30T15:47:27;102068.31;;;5.94;84.77
57990;BME280;58373;51.824;5.564;2023-01-30T15:50:04;102064.22;;;5.89;84.81
57990;BME280;58373;51.824;5.564;2023-01-30T15:52:44;102055.53;;;5.93;84.54